Time;durP1;ratioP1;P1;durP2;ratioP2;P2;SDS_P1;SDS_P2;PMS_P1;PMS_P2;Temp;Humidity;BMP_temperature;BMP_pressure;BME280_temperature;BME280_humidity;BME280_pressure;Samples;Min_cycle;Max_cycle;Signal;HPM_P1;HPM_P2
2022/09/23 00:00:48;;;;;;;18.27;16.48;;;9.60;99.90;;;;;;5088811;28;20075;-75
2022/09/23 00:03:15;;;;;;;15.65;14.25;;;9.80;99.90;;;;;;5087134;28;20403;-75
2022/09/23 00:05:41;;;;;;;17.25;14.90;;;9.90;99.90;;;;;;5106747;28;20228;-75
2022/09/23 00:08:09;;;;;;;15.50;13.93;;;10.00;99.90;;;;;;5087868;28;20040;-75
2022/09/23 00:10:37;;;;;;;15.43;13.93;;;10.10;99.90;;;;;;5106519;28;20063;-75
2022/09/23 00:13:04;;;;;;;16.25;14.65;;;10.20;99.90;;;;;;5083575;28;20094;-75
2022/09/23 00:15:30;;;;;;;15.82;14.30;;;10.30;99.90;;;;;;5088804;28;20047;-75
2022/09/23 00:17:56;;;;;;;16.13;14.60;;;10.40;99.90;;;;;;5088836;28;20498;-75
2022/09/23 00:20:22;;;;;;;16.50;14.52;;;10.40;99.90;;;;;;5083122;28;20104;-75
2022/09/23 00:22:48;;;;;;;15.63;14.02;;;10.40;99.90;;;;;;5089965;28;20040;-75
2022/09/23 00:25:14;;;;;;;15.93;14.60;;;10.40;99.90;;;;;;5089132;28;20119;-75
2022/09/23 00:27:40;;;;;;;15.95;14.02;;;10.50;99.90;;;;;;5089390;28;20044;-75
2022/09/23 00:30:08;;;;;;;15.00;13.52;;;10.30;99.90;;;;;;5088440;28;20052;-75
2022/09/23 00:32:35;;;;;;;13.95;12.55;;;10.20;99.90;;;;;;5087533;28;20056;-75
2022/09/23 00:35:02;;;;;;;13.82;12.63;;;10.00;99.90;;;;;;5087929;28;20063;-75
2022/09/23 00:37:29;;;;;;;14.45;12.60;;;9.90;99.90;;;;;;5106086;28;20419;-75
2022/09/23 00:39:54;;;;;;;13.65;12.35;;;9.70;99.90;;;;;;5102724;28;20043;-75
2022/09/23 00:42:22;;;;;;;14.35;12.95;;;9.50;99.90;;;;;;5098561;28;20043;-75
2022/09/23 00:44:51;;;;;;;13.93;12.63;;;9.40;99.90;;;;;;5088850;28;20048;-75
2022/09/23 00:47:31;;;;;;;15.50;12.85;;;9.30;99.90;;;;;;5088769;28;20040;-75
2022/09/23 00:50:12;;;;;;;13.15;12.02;;;9.20;99.90;;;;;;5104965;28;20091;-75
2022/09/23 00:52:39;;;;;;;15.35;13.75;;;9.20;99.90;;;;;;5087819;28;20039;-75
2022/09/23 00:55:15;;;;;;;13.93;12.43;;;9.00;99.90;;;;;;5088719;28;20056;-75
2022/09/23 00:57:42;;;;;;;14.27;12.88;;;9.10;99.90;;;;;;5106990;28;20067;-75
2022/09/23 01:00:09;;;;;;;13.32;11.95;;;9.00;99.90;;;;;;5088285;28;20043;-75
2022/09/23 01:02:36;;;;;;;13.07;11.88;;;9.00;99.90;;;;;;5088293;28;20048;-75
2022/09/23 01:05:05;;;;;;;13.98;12.77;;;9.00;99.90;;;;;;5088213;28;20050;-75
2022/09/23 01:07:30;;;;;;;14.82;13.40;;;8.90;99.90;;;;;;5088571;28;20590;-75
2022/09/23 01:09:58;;;;;;;14.57;13.10;;;8.90;99.90;;;;;;5087457;28;20052;-75
2022/09/23 01:12:49;;;;;;;14.30;12.98;;;8.90;99.90;;;;;;5086215;28;20028;-75
2022/09/23 01:15:38;;;;;;;14.38;13.07;;;8.80;99.90;;;;;;5105028;28;20059;-75
2022/09/23 01:18:06;;;;;;;15.23;13.93;;;8.80;99.90;;;;;;5106224;28;20042;-75
2022/09/23 01:20:44;;;;;;;12.50;11.40;;;8.70;99.90;;;;;;5087539;28;20427;-75
2022/09/23 01:24:03;;;;;;;13.25;12.15;;;8.80;99.90;;;;;;5103278;28;20135;-75
2022/09/23 01:26:28;;;;;;;13.52;12.32;;;8.60;99.90;;;;;;5085392;28;20047;-75
2022/09/23 01:29:32;;;;;;;15.60;14.20;;;8.60;99.90;;;;;;5086994;28;20044;-75
2022/09/23 01:32:13;;;;;;;16.52;13.40;;;8.50;99.90;;;;;;5101716;28;20040;-75
2022/09/23 01:34:41;;;;;;;13.88;12.48;;;8.50;99.90;;;;;;5104812;28;20044;-75
2022/09/23 01:37:28;;;;;;;16.10;14.55;;;8.50;99.90;;;;;;5105540;28;20071;-75
2022/09/23 01:40:16;;;;;;;15.63;14.23;;;8.50;99.90;;;;;;5100628;28;20074;-75
2022/09/23 01:43:01;;;;;;;15.35;12.98;;;8.50;99.90;;;;;;5086886;28;20040;-75
2022/09/23 01:45:37;;;;;;;14.30;12.98;;;8.50;99.90;;;;;;5105421;28;20044;-75
2022/09/23 01:48:32;;;;;;;16.20;14.48;;;8.50;99.90;;;;;;5087188;28;20083;-75
2022/09/23 01:51:05;;;;;;;15.13;13.73;;;8.50;99.90;;;;;;5104835;28;20048;-75
2022/09/23 01:53:56;;;;;;;15.00;13.65;;;8.40;99.90;;;;;;5086421;28;20048;-75
2022/09/23 01:56:28;;;;;;;16.33;14.85;;;8.50;99.90;;;;;;5081727;28;20043;-75
2022/09/23 01:59:00;;;;;;;14.20;12.85;;;8.50;99.90;;;;;;5104734;28;20048;-75
2022/09/23 02:01:35;;;;;;;14.18;12.77;;;8.40;99.90;;;;;;5104439;28;20062;-75
2022/09/23 02:04:04;;;;;;;15.85;14.35;;;8.30;99.90;;;;;;5085844;28;20040;-75
2022/09/23 02:06:58;;;;;;;14.07;12.68;;;8.30;99.90;;;;;;5084060;28;20101;-75
2022/09/23 02:09:30;;;;;;;11.93;10.73;;;8.30;99.90;;;;;;5087318;28;20052;-75
2022/09/23 02:12:04;;;;;;;13.32;12.10;;;8.30;99.90;;;;;;5104523;28;20040;-75
2022/09/23 02:14:41;;;;;;;12.43;11.32;;;8.30;99.90;;;;;;5086357;28;20043;-75
2022/09/23 02:17:11;;;;;;;13.93;12.73;;;8.30;99.90;;;;;;5085198;28;20052;-75
2022/09/23 02:19:46;;;;;;;13.80;12.48;;;8.30;99.90;;;;;;5069542;28;20044;-75
2022/09/23 02:22:22;;;;;;;14.60;13.23;;;8.30;99.90;;;;;;5085777;28;20475;-75
2022/09/23 02:24:48;;;;;;;15.25;13.80;;;8.20;99.90;;;;;;5086804;28;20044;-75
2022/09/23 02:27:30;;;;;;;13.80;12.50;;;8.10;99.90;;;;;;5086480;28;20047;-75
2022/09/23 02:30:04;;;;;;;13.63;12.25;;;8.10;99.90;;;;;;5105206;28;20071;-75
2022/09/23 02:32:50;;;;;;;15.25;13.73;;;8.00;99.90;;;;;;5103765;28;20040;-75
2022/09/23 02:35:24;;;;;;;15.90;14.43;;;7.90;99.90;;;;;;5084865;28;20051;-75
2022/09/23 02:38:28;;;;;;;16.70;15.13;;;7.80;99.90;;;;;;5067650;28;20097;-75
2022/09/23 02:40:58;;;;;;;16.52;15.13;;;7.90;99.90;;;;;;4994261;28;20114;-75
2022/09/23 02:43:37;;;;;;;16.90;15.38;;;7.90;99.90;;;;;;5004748;28;20545;-75
2022/09/23 02:46:04;;;;;;;15.88;14.27;;;7.90;99.90;;;;;;5021122;28;20105;-75
2022/09/23 02:48:55;;;;;;;16.63;15.10;;;7.90;99.90;;;;;;5011352;28;20105;-75
2022/09/23 02:51:24;;;;;;;13.80;12.40;;;7.90;99.90;;;;;;5018809;28;20066;-75
2022/09/23 02:53:54;;;;;;;15.43;13.98;;;7.90;99.90;;;;;;5001147;28;20038;-75
2022/09/23 02:56:20;;;;;;;14.95;13.45;;;7.90;99.90;;;;;;5018529;28;20050;-75
2022/09/23 02:58:48;;;;;;;18.52;15.60;;;7.80;99.90;;;;;;5007751;28;20088;-75
2022/09/23 03:01:39;;;;;;;14.90;13.50;;;7.90;99.90;;;;;;4997604;28;20046;-75
2022/09/23 03:04:13;;;;;;;16.33;14.82;;;7.90;99.90;;;;;;4994854;28;20584;-75
2022/09/23 03:07:08;;;;;;;16.67;14.88;;;7.80;99.90;;;;;;4994524;28;20536;-75
2022/09/23 03:10:00;;;;;;;15.75;14.20;;;7.70;99.90;;;;;;4997167;28;20062;-75
2022/09/23 03:12:34;;;;;;;15.88;14.45;;;7.60;99.90;;;;;;5022810;28;20518;-75
2022/09/23 03:15:25;;;;;;;16.42;14.77;;;7.60;99.90;;;;;;5000369;28;20050;-75
2022/09/23 03:18:17;;;;;;;15.00;13.43;;;7.60;99.90;;;;;;5064315;28;20497;-75
2022/09/23 03:20:48;;;;;;;17.27;15.68;;;7.60;99.90;;;;;;5105669;28;20048;-75
2022/09/23 03:23:17;;;;;;;18.40;16.70;;;7.50;99.90;;;;;;5089593;28;20054;-75
2022/09/23 03:25:46;;;;;;;18.07;16.27;;;7.50;99.90;;;;;;5108094;28;20094;-75
2022/09/23 03:28:15;;;;;;;15.82;14.23;;;7.70;99.90;;;;;;5089354;28;20059;-75
2022/09/23 03:30:42;;;;;;;16.93;14.90;;;7.60;99.90;;;;;;5108159;28;20268;-75
2022/09/23 03:33:11;;;;;;;15.52;14.13;;;7.50;99.90;;;;;;5107830;28;20048;-75
2022/09/23 03:38:34;;;;;;;15.38;13.80;;;7.40;99.90;;;;;;5071461;28;20051;-75
2022/09/23 03:41:03;;;;;;;13.75;12.60;;;7.30;99.90;;;;;;5089378;28;20051;-75
2022/09/23 03:43:30;;;;;;;13.48;12.18;;;7.30;99.90;;;;;;5089799;28;20048;-75
2022/09/23 03:45:57;;;;;;;12.55;11.25;;;7.30;99.90;;;;;;5089266;28;20052;-75
2022/09/23 03:48:23;;;;;;;12.25;11.15;;;7.20;99.90;;;;;;5088727;28;20044;-75
2022/09/23 03:50:50;;;;;;;15.55;14.00;;;7.10;99.90;;;;;;5106919;28;20032;-75
2022/09/23 03:53:17;;;;;;;14.65;13.35;;;7.00;99.90;;;;;;5088730;28;20043;-75
2022/09/23 03:55:44;;;;;;;18.90;17.13;;;6.90;99.90;;;;;;5089434;28;20048;-75
2022/09/23 03:58:10;;;;;;;17.83;16.15;;;6.90;99.90;;;;;;5089269;28;20063;-75
2022/09/23 04:00:35;;;;;;;18.50;16.75;;;6.90;99.90;;;;;;5089150;28;20048;-75
2022/09/23 04:03:01;;;;;;;15.52;14.07;;;6.90;99.90;;;;;;5107132;28;20096;-75
2022/09/23 04:05:27;;;;;;;15.73;14.23;;;6.90;99.90;;;;;;5106544;28;20131;-75
2022/09/23 04:07:53;;;;;;;15.50;14.10;;;6.90;99.90;;;;;;5107565;28;20052;-75
2022/09/23 04:10:19;;;;;;;16.30;14.80;;;6.90;99.90;;;;;;5089624;28;20043;-75
2022/09/23 04:12:45;;;;;;;16.20;14.70;;;6.90;99.90;;;;;;5086152;28;20048;-75
2022/09/23 04:15:11;;;;;;;17.65;16.05;;;6.90;99.90;;;;;;5089591;28;20109;-75
2022/09/23 04:17:36;;;;;;;17.35;15.77;;;6.90;99.90;;;;;;5089386;28;20123;-75
2022/09/23 04:20:03;;;;;;;14.70;13.40;;;6.90;99.90;;;;;;5107405;28;20094;-75
2022/09/23 04:22:28;;;;;;;16.60;15.10;;;6.90;99.90;;;;;;5089233;28;20064;-75
2022/09/23 04:24:55;;;;;;;17.17;15.48;;;6.90;99.90;;;;;;5106390;28;20047;-75
2022/09/23 04:27:20;;;;;;;18.27;16.38;;;6.90;99.90;;;;;;5106423;28;20051;-75
2022/09/23 04:29:46;;;;;;;18.20;16.55;;;7.00;99.90;;;;;;5106542;28;20036;-75
2022/09/23 04:32:12;;;;;;;16.42;14.90;;;7.00;99.90;;;;;;5106778;28;20495;-75
2022/09/23 04:34:37;;;;;;;18.55;16.65;;;7.00;99.90;;;;;;5106488;28;20040;-75
2022/09/23 04:37:03;;;;;;;17.08;15.48;;;7.00;99.90;;;;;;5106397;28;20054;-75
2022/09/23 04:39:29;;;;;;;15.00;13.60;;;7.00;99.90;;;;;;5103078;28;20082;-75
2022/09/23 04:41:54;;;;;;;15.65;14.05;;;7.00;99.90;;;;;;5106462;28;20040;-75
2022/09/23 04:44:20;;;;;;;19.70;16.35;;;6.80;99.90;;;;;;5107209;28;20051;-75
2022/09/23 04:46:46;;;;;;;17.17;15.38;;;6.80;99.90;;;;;;5088061;28;20070;-75
2022/09/23 04:49:13;;;;;;;14.57;13.13;;;6.90;99.90;;;;;;5090336;28;20044;-75
2022/09/23 04:51:42;;;;;;;14.00;12.60;;;6.80;99.90;;;;;;5106289;28;20067;-75
2022/09/23 04:54:09;;;;;;;13.85;12.57;;;6.90;99.90;;;;;;5087608;28;20054;-75
2022/09/23 04:56:35;;;;;;;15.75;14.35;;;6.80;99.90;;;;;;5087527;28;20047;-75
2022/09/23 04:59:00;;;;;;;15.32;13.93;;;6.70;99.90;;;;;;5087086;28;20171;-75
2022/09/23 05:01:33;;;;;;;13.90;12.68;;;6.70;99.90;;;;;;5087596;28;20040;-75
2022/09/23 05:04:04;;;;;;;15.32;13.73;;;6.70;99.90;;;;;;5084323;28;20048;-75
2022/09/23 05:06:33;;;;;;;16.60;15.00;;;6.80;99.90;;;;;;5087319;28;20059;-75
2022/09/23 05:08:59;;;;;;;17.98;16.30;;;6.80;99.90;;;;;;5088374;28;20091;-75
2022/09/23 05:11:26;;;;;;;16.55;14.93;;;6.80;99.90;;;;;;5105760;28;20040;-75
2022/09/23 05:13:53;;;;;;;18.13;16.35;;;6.90;99.90;;;;;;5104566;28;20079;-74
2022/09/23 05:16:21;;;;;;;16.55;14.95;;;6.90;99.90;;;;;;5088071;28;20048;-75
2022/09/23 05:18:49;;;;;;;16.70;14.95;;;6.90;99.90;;;;;;5088247;28;20051;-75
2022/09/23 05:21:23;;;;;;;17.65;15.95;;;7.00;99.90;;;;;;5087758;28;20127;-73
2022/09/23 05:23:54;;;;;;;18.10;16.40;;;7.10;99.90;;;;;;5049404;28;20056;-71
2022/09/23 05:26:21;;;;;;;17.23;15.55;;;7.00;99.90;;;;;;5086541;28;20071;-72
2022/09/23 05:28:47;;;;;;;16.92;15.43;;;7.00;99.90;;;;;;5061552;28;20147;-75
2022/09/23 05:31:16;;;;;;;17.65;15.98;;;7.00;99.90;;;;;;5058206;28;20506;-74
2022/09/23 05:33:44;;;;;;;17.95;16.15;;;7.10;99.90;;;;;;5067789;28;20048;-72
2022/09/23 05:36:10;;;;;;;16.15;14.60;;;7.10;99.90;;;;;;5052434;28;20060;-71
2022/09/23 05:38:36;;;;;;;16.38;14.80;;;7.10;99.90;;;;;;5078795;28;20051;-73
2022/09/23 05:41:05;;;;;;;16.45;14.85;;;6.90;99.90;;;;;;5079266;28;20044;-73
2022/09/23 05:43:31;;;;;;;14.67;13.17;;;6.90;99.90;;;;;;5079130;28;20052;-73
2022/09/23 05:46:02;;;;;;;14.30;12.90;;;6.90;99.90;;;;;;5067550;28;20064;-73
2022/09/23 05:48:33;;;;;;;15.52;13.95;;;6.90;99.90;;;;;;5078881;28;20040;-72
2022/09/23 05:50:59;;;;;;;14.25;13.00;;;6.90;99.90;;;;;;5052715;28;20043;-72
2022/09/23 05:53:26;;;;;;;14.85;13.30;;;6.90;99.90;;;;;;5080410;28;20071;-74
2022/09/23 05:55:53;;;;;;;15.70;14.13;;;6.90;99.90;;;;;;5069172;28;20483;-74
2022/09/23 05:58:20;;;;;;;15.93;14.30;;;6.90;99.90;;;;;;5095790;28;20048;-74
2022/09/23 06:00:48;;;;;;;16.92;15.43;;;7.00;99.90;;;;;;5069115;28;20448;-74
2022/09/23 06:03:16;;;;;;;19.50;17.50;;;7.10;99.90;;;;;;5081790;28;20052;-74
2022/09/23 06:05:41;;;;;;;19.27;17.25;;;7.20;99.90;;;;;;5046679;28;20157;-71
2022/09/23 06:08:08;;;;;;;18.02;16.27;;;7.30;99.90;;;;;;5080143;28;20052;-74
2022/09/23 06:10:43;;;;;;;17.40;15.52;;;7.30;99.90;;;;;;5070077;28;20392;-72
2022/09/23 06:13:09;;;;;;;17.27;15.68;;;7.40;99.90;;;;;;5077312;28;20040;-72
2022/09/23 06:15:36;;;;;;;18.83;16.92;;;7.50;99.90;;;;;;5068726;28;20048;-72
2022/09/23 06:18:02;;;;;;;18.70;16.58;;;7.50;99.90;;;;;;5079667;28;20059;-72
2022/09/23 06:20:28;;;;;;;16.50;14.90;;;7.60;99.90;;;;;;5069498;28;20051;-71
2022/09/23 06:22:53;;;;;;;17.83;15.60;;;7.70;99.90;;;;;;5068372;28;20137;-72
2022/09/23 06:25:21;;;;;;;18.35;16.42;;;7.90;99.90;;;;;;5088441;28;20051;-71
2022/09/23 06:27:58;;;;;;;18.30;16.30;;;8.10;99.90;;;;;;5079445;28;20958;-72
2022/09/23 06:30:25;;;;;;;17.30;15.10;;;8.20;99.90;;;;;;5068165;28;20052;-71
2022/09/23 06:32:56;;;;;;;16.45;14.77;;;8.30;99.90;;;;;;5079469;28;20624;-71
2022/09/23 06:35:25;;;;;;;19.92;17.38;;;8.40;99.90;;;;;;5084375;28;20432;-74
2022/09/23 06:37:51;;;;;;;19.10;17.15;;;8.60;99.90;;;;;;5096234;28;20048;-74
2022/09/23 06:40:17;;;;;;;17.58;15.68;;;8.70;99.90;;;;;;5067997;28;20091;-74
2022/09/23 06:42:43;;;;;;;18.33;16.50;;;8.70;99.90;;;;;;5078352;28;20064;-74
2022/09/23 06:45:14;;;;;;;17.15;15.27;;;8.90;99.90;;;;;;5066862;28;20048;-71
2022/09/23 06:47:41;;;;;;;17.45;15.70;;;9.00;99.90;;;;;;5076762;28;20052;-72
2022/09/23 06:50:08;;;;;;;17.42;15.02;;;9.10;99.90;;;;;;5068881;28;20496;-69
2022/09/23 06:52:34;;;;;;;17.60;15.68;;;9.20;99.90;;;;;;5079148;28;20115;-73
2022/09/23 06:55:00;;;;;;;16.92;15.25;;;9.30;99.90;;;;;;5050126;28;20083;-74
2022/09/23 06:57:30;;;;;;;19.20;17.13;;;9.40;99.90;;;;;;5057988;28;20404;-74
2022/09/23 06:59:58;;;;;;;24.83;22.23;;;9.50;99.90;;;;;;5065152;28;20054;-73
2022/09/23 07:02:24;;;;;;;18.30;16.38;;;9.60;99.90;;;;;;5082592;28;20051;-70
2022/09/23 07:04:50;;;;;;;16.58;14.10;;;9.70;99.90;;;;;;5068463;28;20052;-76
2022/09/23 07:07:17;;;;;;;15.48;13.88;;;9.80;99.90;;;;;;5079261;28;20051;-70
2022/09/23 07:09:44;;;;;;;16.52;14.68;;;9.90;99.90;;;;;;5065433;28;20040;-74
2022/09/23 07:12:09;;;;;;;15.23;13.68;;;9.90;99.90;;;;;;5070934;28;20293;-73
2022/09/23 07:14:35;;;;;;;16.00;13.40;;;10.10;99.90;;;;;;5046580;28;20040;-73
2022/09/23 07:17:02;;;;;;;15.07;12.75;;;10.20;99.90;;;;;;5058562;28;20032;-73
2022/09/23 07:19:28;;;;;;;13.57;12.18;;;10.30;99.90;;;;;;5055178;28;20423;-73
2022/09/23 07:21:54;;;;;;;16.60;12.02;;;10.40;99.90;;;;;;5073145;28;20468;-74
2022/09/23 07:24:19;;;;;;;13.30;11.88;;;10.50;99.90;;;;;;5072674;28;20044;-74
2022/09/23 07:26:45;;;;;;;13.45;11.30;;;10.50;99.90;;;;;;5066980;28;20056;-73
2022/09/23 07:29:13;;;;;;;15.25;11.40;;;10.60;99.90;;;;;;5077056;28;20059;-73
2022/09/23 07:31:39;;;;;;;12.65;11.32;;;10.70;99.90;;;;;;5067773;28;20056;-73
2022/09/23 07:34:06;;;;;;;14.18;12.13;;;10.70;99.90;;;;;;5075685;28;20047;-74
2022/09/23 07:36:31;;;;;;;13.02;11.73;;;10.80;99.90;;;;;;5067160;28;20460;-74
2022/09/23 07:39:01;;;;;;;12.93;11.65;;;10.90;99.90;;;;;;5078016;28;20067;-73
2022/09/23 07:41:27;;;;;;;13.37;11.90;;;10.90;99.90;;;;;;5067456;28;20048;-73
2022/09/23 07:43:57;;;;;;;14.30;12.02;;;11.00;99.90;;;;;;5074769;28;20618;-73
2022/09/23 07:46:26;;;;;;;13.40;11.93;;;11.00;99.90;;;;;;5068078;28;20060;-74
2022/09/23 07:48:52;;;;;;;16.15;12.90;;;11.20;99.90;;;;;;5077046;28;20147;-74
2022/09/23 07:51:24;;;;;;;13.68;11.85;;;11.20;99.90;;;;;;5068590;28;20547;-73
2022/09/23 07:53:52;;;;;;;12.05;10.90;;;11.20;99.90;;;;;;5079411;28;20072;-73
2022/09/23 07:56:20;;;;;;;13.15;11.85;;;11.30;99.90;;;;;;5067478;28;20052;-74
2022/09/23 07:59:20;;;;;;;13.05;11.50;;;11.30;99.90;;;;;;5071245;28;20050;-74
2022/09/23 08:01:41;;;;;;;12.43;11.13;;;11.30;99.90;;;;;;5063828;28;20412;-74
2022/09/23 08:04:11;;;;;;;16.50;11.85;;;11.40;99.90;;;;;;5057932;28;20041;-74
2022/09/23 08:06:47;;;;;;;12.80;11.35;;;11.50;99.90;;;;;;5089334;28;20345;-74
2022/09/23 08:09:13;;;;;;;12.68;11.20;;;11.60;99.90;;;;;;5098620;28;20051;-73
2022/09/23 08:11:40;;;;;;;12.27;10.98;;;11.60;99.90;;;;;;5071419;28;20147;-74
2022/09/23 08:14:12;;;;;;;13.35;11.75;;;11.60;99.90;;;;;;5082013;28;20083;-74
2022/09/23 08:16:39;;;;;;;13.13;11.73;;;11.60;99.90;;;;;;5055907;28;20110;-73
2022/09/23 08:19:05;;;;;;;13.52;11.85;;;11.70;99.90;;;;;;5082187;28;20048;-73
2022/09/23 08:21:31;;;;;;;13.95;12.23;;;11.80;99.90;;;;;;5087189;28;20056;-73
2022/09/23 08:23:57;;;;;;;13.13;11.82;;;11.90;99.90;;;;;;5068798;28;20055;-74
2022/09/23 08:26:23;;;;;;;13.60;11.63;;;11.90;99.90;;;;;;5070675;28;20082;-74
2022/09/23 08:28:52;;;;;;;13.38;11.93;;;12.00;99.90;;;;;;5093851;28;20055;-74
2022/09/23 08:31:21;;;;;;;16.08;11.75;;;12.00;99.90;;;;;;5087284;28;20255;-74
2022/09/23 08:33:52;;;;;;;13.63;11.63;;;12.10;99.90;;;;;;5081706;28;20055;-73
2022/09/23 08:36:18;;;;;;;12.95;11.48;;;12.10;99.90;;;;;;5070213;28;20052;-73
2022/09/23 08:38:43;;;;;;;14.35;11.40;;;12.10;99.90;;;;;;5078158;28;20066;-73
2022/09/23 08:42:02;;;;;;;13.55;11.50;;;12.20;99.90;;;;;;5069951;28;20043;-72
2022/09/23 08:44:51;;;;;;;13.77;10.63;;;12.20;99.90;;;;;;4979483;28;20050;-73
2022/09/23 08:47:23;;;;;;;11.85;10.52;;;12.20;99.90;;;;;;4952458;28;20051;-74
2022/09/23 08:50:00;;;;;;;13.93;10.77;;;12.30;99.90;;;;;;4990529;28;20093;-74
2022/09/23 08:52:34;;;;;;;12.75;10.10;;;12.40;99.90;;;;;;4993322;28;20070;-74
2022/09/23 08:55:02;;;;;;;12.98;9.80;;;12.50;99.90;;;;;;4969981;28;20093;-73
2022/09/23 08:57:55;;;;;;;12.13;10.23;;;12.60;99.90;;;;;;4965175;28;20054;-74
2022/09/23 09:00:25;;;;;;;12.02;9.90;;;12.60;99.90;;;;;;4983324;28;20327;-74
2022/09/23 09:02:52;;;;;;;11.85;9.60;;;12.70;99.90;;;;;;4968269;28;20058;-73
2022/09/23 09:05:25;;;;;;;12.32;10.65;;;12.70;99.90;;;;;;4999940;28;20120;-73
2022/09/23 09:07:54;;;;;;;11.57;9.88;;;12.90;99.90;;;;;;4968055;28;20506;-73
2022/09/23 09:10:27;;;;;;;12.55;11.27;;;12.90;99.90;;;;;;5002392;28;20573;-73
2022/09/23 09:13:06;;;;;;;12.27;9.85;;;13.00;99.90;;;;;;4984097;28;20116;-74
2022/09/23 09:15:41;;;;;;;12.45;9.80;;;13.10;99.90;;;;;;4992316;28;20058;-73
2022/09/23 09:18:19;;;;;;;13.25;10.57;;;13.10;99.90;;;;;;5001234;28;20139;-73
2022/09/23 09:20:59;;;;;;;10.82;9.00;;;13.30;99.90;;;;;;5067660;28;20052;-73
2022/09/23 09:23:24;;;;;;;10.65;9.25;;;13.40;99.90;;;;;;5036375;28;20385;-73
2022/09/23 09:25:52;;;;;;;14.00;8.95;;;13.40;99.90;;;;;;5048000;28;20055;-74
2022/09/23 09:28:38;;;;;;;13.60;9.80;;;13.50;99.90;;;;;;5053331;28;20048;-74
2022/09/23 09:31:23;;;;;;;18.60;10.25;;;13.50;99.90;;;;;;5067211;28;20119;-74
2022/09/23 09:34:06;;;;;;;11.77;9.60;;;13.60;99.90;;;;;;5057925;28;20040;-74
2022/09/23 09:36:50;;;;;;;11.13;8.73;;;13.60;99.90;;;;;;5047801;28;20183;-73
2022/09/23 09:39:16;;;;;;;12.35;9.75;;;13.70;99.90;;;;;;5037502;28;20041;-72
2022/09/23 09:41:46;;;;;;;10.05;9.05;;;13.80;99.90;;;;;;5049485;28;20106;-73
2022/09/23 09:44:23;;;;;;;10.48;9.38;;;13.90;99.90;;;;;;5058178;28;20059;-73
2022/09/23 09:47:27;;;;;;;10.13;9.13;;;14.00;99.90;;;;;;5051341;28;20056;-73
2022/09/23 09:50:20;;;;;;;11.25;8.43;;;14.10;99.90;;;;;;5075708;28;20052;-73
2022/09/23 09:52:55;;;;;;;11.52;8.75;;;14.20;99.90;;;;;;5042734;28;20056;-73
2022/09/23 09:55:26;;;;;;;10.77;8.43;;;14.20;99.90;;;;;;5042181;28;20045;-74
2022/09/23 09:58:04;;;;;;;9.95;8.43;;;14.30;99.90;;;;;;5058456;28;20044;-74
2022/09/23 10:00:30;;;;;;;11.68;8.68;;;14.40;99.90;;;;;;5048757;28;20079;-74
2022/09/23 10:03:14;;;;;;;10.27;8.52;;;14.60;99.90;;;;;;5037049;28;20576;-73
2022/09/23 10:05:49;;;;;;;11.25;8.52;;;14.70;99.90;;;;;;5039541;28;20124;-74
2022/09/23 10:08:24;;;;;;;11.63;8.40;;;14.80;99.90;;;;;;5050509;28;20056;-72
2022/09/23 10:11:08;;;;;;;12.25;7.90;;;14.80;99.90;;;;;;5049033;28;20053;-72
2022/09/23 10:13:36;;;;;;;12.27;8.45;;;15.00;99.90;;;;;;5057594;28;20041;-72
2022/09/23 10:16:03;;;;;;;10.90;7.82;;;15.10;99.90;;;;;;5065106;28;20140;-72
2022/09/23 10:18:30;;;;;;;9.32;7.50;;;15.10;99.90;;;;;;5060600;28;20147;-73
2022/09/23 10:21:08;;;;;;;10.18;7.55;;;15.20;99.90;;;;;;5049517;28;20287;-73
2022/09/23 10:23:46;;;;;;;9.32;7.90;;;15.20;99.90;;;;;;5062197;28;20583;-72
2022/09/23 10:26:16;;;;;;;11.95;7.90;;;15.20;99.90;;;;;;5044420;28;20056;-72
2022/09/23 10:28:44;;;;;;;9.75;8.68;;;15.10;99.90;;;;;;5060259;28;20340;-72
2022/09/23 10:31:23;;;;;;;11.15;8.63;;;15.00;99.90;;;;;;5065410;28;20090;-72
2022/09/23 10:33:56;;;;;;;9.18;8.25;;;15.10;99.90;;;;;;5059344;28;20047;-71
2022/09/23 10:36:22;;;;;;;10.52;8.18;;;15.10;99.90;;;;;;5067840;28;20066;-72
2022/09/23 10:48:11;;;;;;;9.65;8.13;;;15.20;99.90;;;;;;4991200;28;20372;-73
2022/09/23 10:50:41;;;;;;;9.95;8.60;;;15.20;99.90;;;;;;5005708;28;20053;-73
2022/09/23 10:53:29;;;;;;;13.88;8.52;;;15.20;99.90;;;;;;5016684;28;20041;-73
2022/09/23 10:56:16;;;;;;;10.85;8.98;;;15.20;99.90;;;;;;5003533;28;20092;-73
2022/09/23 10:58:48;;;;;;;9.77;8.38;;;15.30;99.90;;;;;;5007415;28;20053;-72
2022/09/23 11:01:23;;;;;;;11.82;8.00;;;15.30;99.90;;;;;;5005876;28;20477;-73
2022/09/23 11:04:04;;;;;;;10.35;8.13;;;15.40;99.90;;;;;;5016039;28;20080;-73
2022/09/23 11:07:03;;;;;;;11.48;8.48;;;15.40;99.90;;;;;;5024018;28;20121;-73
2022/09/23 11:10:06;;;;;;;12.73;9.10;;;15.40;99.90;;;;;;5016665;28;20037;-72
2022/09/23 11:12:53;;;;;;;10.57;8.52;;;15.50;99.90;;;;;;4976514;28;20142;-73
2022/09/23 11:16:03;;;;;;;12.23;8.73;;;15.50;99.90;;;;;;5027902;28;20060;-72
2022/09/23 11:18:47;;;;;;;11.35;8.95;;;15.50;99.90;;;;;;5043520;28;20056;-72
2022/09/23 11:21:47;;;;;;;11.05;8.95;;;15.50;99.90;;;;;;5041513;28;20056;-72
2022/09/23 11:24:46;;;;;;;10.48;9.10;;;15.50;99.90;;;;;;5039071;28;20053;-72
2022/09/23 11:28:02;;;;;;;9.63;7.88;;;15.50;99.90;;;;;;5045803;28;20052;-73
2022/09/23 11:31:04;;;;;;;13.52;9.73;;;15.50;99.90;;;;;;4999165;28;20094;-72
2022/09/23 11:34:10;;;;;;;10.95;9.32;;;15.50;99.90;;;;;;4981101;28;20074;-72
2022/09/23 11:36:47;;;;;;;10.18;7.95;;;15.50;99.90;;;;;;4974936;28;20047;-73
2022/09/23 11:39:36;;;;;;;10.95;9.00;;;15.60;99.90;;;;;;4975406;28;20649;-73
2022/09/23 11:42:11;;;;;;;13.25;9.10;;;15.50;99.90;;;;;;4965114;28;20323;-73
2022/09/23 11:44:47;;;;;;;10.65;8.45;;;15.50;99.90;;;;;;4964144;28;20043;-73
2022/09/23 11:47:42;;;;;;;11.77;8.73;;;15.50;99.90;;;;;;4982223;28;20441;-72
2022/09/23 11:50:31;;;;;;;11.20;8.48;;;15.60;99.90;;;;;;4992442;28;20055;-73
2022/09/23 11:53:32;;;;;;;11.43;9.27;;;15.50;99.90;;;;;;4968170;28;20063;-72
2022/09/23 11:56:25;;;;;;;11.25;9.05;;;15.60;99.90;;;;;;4955296;28;20065;-72
2022/09/23 11:59:11;;;;;;;12.20;8.90;;;15.50;99.90;;;;;;4986137;28;20069;-72
2022/09/23 12:02:03;;;;;;;12.20;9.00;;;15.50;99.90;;;;;;4959883;28;20073;-73
2022/09/23 12:04:44;;;;;;;11.63;9.80;;;15.50;99.90;;;;;;4953635;28;20086;-73
2022/09/23 12:07:23;;;;;;;14.13;9.35;;;15.50;99.90;;;;;;4998166;28;20406;-73
2022/09/23 12:10:04;;;;;;;15.05;9.15;;;15.50;99.90;;;;;;5019625;28;20049;-73
2022/09/23 12:12:35;;;;;;;12.23;10.88;;;15.50;99.90;;;;;;5052989;28;20260;-73
2022/09/23 12:15:28;;;;;;;13.85;9.65;;;15.40;99.90;;;;;;5099524;28;20105;-73
2022/09/23 12:18:12;;;;;;;12.65;9.13;;;15.40;99.90;;;;;;5091842;28;20048;-72
2022/09/23 12:20:52;;;;;;;11.48;9.05;;;15.40;99.90;;;;;;5081352;28;20044;-72
2022/09/23 12:23:30;;;;;;;11.05;9.73;;;15.50;99.90;;;;;;5023926;28;20116;-73
2022/09/23 12:26:07;;;;;;;11.10;8.70;;;15.50;99.90;;;;;;5071008;28;20051;-73
2022/09/23 12:28:38;;;;;;;11.07;9.18;;;15.50;99.90;;;;;;5082483;28;20048;-73
2022/09/23 12:31:10;;;;;;;12.13;9.27;;;15.50;99.90;;;;;;5072249;28;20427;-73
2022/09/23 12:33:37;;;;;;;13.02;9.93;;;15.60;99.90;;;;;;5067556;28;20047;-72
2022/09/23 12:36:08;;;;;;;10.30;9.27;;;15.60;99.90;;;;;;5079705;28;20323;-72
2022/09/23 12:38:50;;;;;;;11.57;9.98;;;15.60;99.90;;;;;;5068944;28;20044;-72
2022/09/23 12:41:18;;;;;;;12.88;9.50;;;15.70;99.90;;;;;;5071090;28;20144;-72
2022/09/23 12:43:54;;;;;;;11.63;10.20;;;15.70;99.90;;;;;;5080795;28;20506;-73
2022/09/23 12:46:24;;;;;;;12.63;10.13;;;15.70;99.90;;;;;;5069752;28;21220;-73
2022/09/23 12:48:56;;;;;;;;;;;15.70;99.90;;;;;;5081026;28;20048;-73
2022/09/23 12:51:22;;;;;;;13.63;9.60;;;15.70;99.90;;;;;;5070921;28;19920;-73
2022/09/23 12:53:54;;;;;;;12.73;10.45;;;15.70;99.90;;;;;;5098440;28;20112;-73
2022/09/23 12:56:25;;;;;;;11.85;9.55;;;15.70;99.90;;;;;;5088284;28;20059;-73
2022/09/23 12:58:53;;;;;;;13.00;9.48;;;15.70;99.90;;;;;;5097990;28;20078;-73
2022/09/23 13:01:22;;;;;;;10.30;9.25;;;15.70;99.90;;;;;;5070824;28;20116;-73
2022/09/23 13:06:45;;;;;;;13.57;9.70;;;15.80;99.90;;;;;;5087313;28;20079;-73
2022/09/23 13:09:21;;;;;;;11.32;9.57;;;15.80;99.90;;;;;;5087004;28;20052;-73
2022/09/23 13:11:47;;;;;;;12.05;9.38;;;15.90;99.90;;;;;;5083558;28;20052;-73
2022/09/23 13:14:21;;;;;;;13.63;10.52;;;15.90;99.90;;;;;;5077920;28;20108;-73
2022/09/23 13:16:48;;;;;;;10.93;9.77;;;15.90;99.90;;;;;;5074694;28;20143;-74
2022/09/23 13:19:26;;;;;;;11.90;10.07;;;15.90;99.90;;;;;;5084891;28;20048;-72
2022/09/23 13:21:52;;;;;;;11.15;9.07;;;16.00;99.90;;;;;;5057880;28;20519;-73